Time;durP1;ratioP1;P1;durP2;ratioP2;P2;SDS_P1;SDS_P2;PMS_P1;PMS_P2;Temp;Humidity;BMP_temperature;BMP_pressure;BME280_temperature;BME280_humidity;BME280_pressure;Samples;Min_cycle;Max_cycle;Signal;HPM_P1;HPM_P2
2022/04/23 00:01:42;;;;;;;7.82;4.15;;;;;;;-144.47;100.00;61586.06;6122942;23;20041;-75
2022/04/23 00:04:12;;;;;;;6.32;3.65;;;;;;;-144.47;100.00;61586.06;6122989;23;20084;-76
2022/04/23 00:06:37;;;;;;;7.10;3.80;;;;;;;-144.47;100.00;61586.06;6123400;23;20013;-76
2022/04/23 00:09:04;;;;;;;7.20;4.10;;;;;;;-144.47;100.00;61586.06;6122957;23;20002;-76
2022/04/23 00:11:55;;;;;;;8.48;5.18;;;;;;;-144.47;100.00;61586.06;6123189;23;20101;-75
2022/04/23 00:14:25;;;;;;;4.35;3.80;;;;;;;-144.47;100.00;61586.06;6123135;23;20010;-76
2022/04/23 00:16:53;;;;;;;6.93;4.07;;;;;;;-144.47;100.00;61586.06;6123151;23;20041;-75
2022/04/23 00:19:19;;;;;;;6.43;4.15;;;;;;;-144.47;100.00;61586.06;6123478;23;20119;-76
2022/04/23 00:21:45;;;;;;;4.75;4.10;;;;;;;-144.47;100.00;61586.06;6122969;23;20033;-75
2022/04/23 00:24:10;;;;;;;4.57;4.18;;;;;;;-144.47;100.00;61586.06;6122898;23;20428;-76
2022/04/23 00:26:36;;;;;;;5.18;4.10;;;;;;;-144.47;100.00;61586.06;6122419;23;20012;-75
2022/04/23 00:29:02;;;;;;;6.28;4.55;;;;;;;-144.47;100.00;61586.06;6146140;23;20010;-75
2022/04/23 00:31:52;;;;;;;4.30;3.60;;;;;;;-144.47;100.00;61586.06;6123676;23;20033;-75
2022/04/23 00:34:18;;;;;;;7.55;4.43;;;;;;;-144.47;100.00;61586.06;6123062;23;20394;-76
2022/04/23 00:37:09;;;;;;;;;;;;;;;-144.47;100.00;61586.06;6103186;23;20037;-76
2022/04/23 00:39:34;;;;;;;5.35;4.10;;;;;;;-144.47;100.00;61586.06;6125405;23;19917;-76
2022/04/23 00:42:01;;;;;;;4.30;3.90;;;;;;;-144.47;100.00;61586.06;6130815;23;20002;-77
2022/04/23 00:44:27;;;;;;;7.90;4.40;;;;;;;-144.47;100.00;61586.06;6127526;23;20037;-76
2022/04/23 00:46:52;;;;;;;7.30;4.35;;;;;;;-144.47;100.00;61586.06;6122657;23;20014;-76
2022/04/23 00:49:18;;;;;;;6.45;4.05;;;;;;;-144.47;100.00;61586.06;6122732;23;20367;-75
2022/04/23 00:52:08;;;;;;;;;;;;;;;-144.47;100.00;61586.06;6123144;23;20140;-76
2022/04/23 00:54:34;;;;;;;5.75;3.88;;;;;;;-144.47;100.00;61586.06;6121978;23;20322;-76
2022/04/23 00:57:00;;;;;;;5.60;3.90;;;;;;;-144.47;100.00;61586.06;6122059;23;20024;-76
2022/04/23 00:59:28;;;;;;;4.72;3.40;;;;;;;-144.47;100.00;61586.06;6118052;23;20088;-74
2022/04/23 01:01:53;;;;;;;7.53;4.35;;;;;;;-144.47;100.00;61586.06;6119670;23;20053;-74
2022/04/23 01:04:19;;;;;;;6.80;4.03;;;;;;;-144.47;100.00;61586.06;6120372;23;20010;-75
2022/04/23 01:06:45;;;;;;;7.07;3.45;;;;;;;-144.47;100.00;61586.06;6122065;23;20017;-76
2022/04/23 01:09:10;;;;;;;5.53;3.85;;;;;;;-144.47;100.00;61586.06;6122847;23;20328;-76
2022/04/23 01:11:36;;;;;;;8.05;3.70;;;;;;;-144.47;100.00;61586.06;6121954;23;20117;-75
2022/04/23 01:14:03;;;;;;;5.28;3.80;;;;;;;-144.47;100.00;61586.06;6096116;23;20340;-74
2022/04/23 01:16:30;;;;;;;5.80;3.90;;;;;;;-144.47;100.00;61586.06;6121983;23;20036;-74
2022/04/23 01:18:56;;;;;;;5.30;3.60;;;;;;;-144.47;100.00;61586.06;6122552;23;20372;-75
2022/04/23 01:21:21;;;;;;;4.97;3.67;;;;;;;-144.47;100.00;61586.06;6121982;23;20013;-76
2022/04/23 01:23:48;;;;;;;5.10;3.97;;;;;;;-144.47;100.00;61586.06;6121370;23;20014;-75
2022/04/23 01:26:23;;;;;;;6.85;4.13;;;;;;;-144.47;100.00;61586.06;6122397;23;20077;-75
2022/04/23 01:28:49;;;;;;;7.78;3.88;;;;;;;-144.47;100.00;61586.06;6094632;23;20014;-76
2022/04/23 01:31:14;;;;;;;4.55;4.13;;;;;;;-144.47;100.00;61586.06;6121876;23;20146;-75
2022/04/23 01:33:40;;;;;;;6.80;4.07;;;;;;;-144.47;100.00;61586.06;6121834;23;20405;-76
2022/04/23 01:36:05;;;;;;;6.63;4.90;;;;;;;-144.47;100.00;61586.06;6121650;23;20416;-77
2022/04/23 01:38:32;;;;;;;7.82;4.55;;;;;;;-144.47;100.00;61586.06;6121542;23;20044;-75
2022/04/23 01:40:58;;;;;;;5.13;3.95;;;;;;;-144.47;100.00;61586.06;6121694;23;20014;-75
2022/04/23 01:43:23;;;;;;;8.98;4.63;;;;;;;-144.47;100.00;61586.06;6121346;23;20134;-76
2022/04/23 01:45:49;;;;;;;5.28;4.07;;;;;;;-144.47;100.00;61586.06;6121695;23;20020;-75
2022/04/23 01:48:14;;;;;;;7.38;5.07;;;;;;;-144.47;100.00;61586.06;6122096;23;20038;-76
2022/04/23 01:50:41;;;;;;;6.15;5.25;;;;;;;-144.47;100.00;61586.06;6120812;23;20014;-76
2022/04/23 01:53:06;;;;;;;7.32;4.93;;;;;;;-144.47;100.00;61586.06;6121987;23;20009;-76
2022/04/23 01:55:32;;;;;;;6.70;4.95;;;;;;;-144.47;100.00;61586.06;6121369;23;20014;-76
2022/04/23 01:57:58;;;;;;;8.02;5.07;;;;;;;-144.47;100.00;61586.06;6123161;23;20014;-76
2022/04/23 02:00:24;;;;;;;6.75;4.53;;;;;;;-144.47;100.00;61586.06;6121412;23;20033;-75
2022/04/23 02:02:49;;;;;;;7.65;5.00;;;;;;;-144.47;100.00;61586.06;6122024;23;20100;-75
2022/04/23 02:05:17;;;;;;;5.53;4.63;;;;;;;-144.47;100.00;61586.06;6123374;23;20296;-76
2022/04/23 02:07:44;;;;;;;8.90;4.88;;;;;;;-144.47;100.00;61586.06;6123375;23;20010;-76
2022/04/23 02:10:12;;;;;;;5.53;4.65;;;;;;;-144.47;100.00;61586.06;6123839;23;20010;-75
2022/04/23 02:12:38;;;;;;;5.40;4.40;;;;;;;-144.47;100.00;61586.06;6125617;23;20010;-76
2022/04/23 02:15:14;;;;;;;5.55;4.85;;;;;;;-144.47;100.00;61586.06;6130133;23;20009;-75
2022/04/23 02:17:43;;;;;;;9.68;4.88;;;;;;;-144.47;100.00;61586.06;6124349;23;20045;-76
2022/04/23 02:20:16;;;;;;;5.70;4.80;;;;;;;-144.47;100.00;61586.06;6123834;23;20014;-75
2022/04/23 02:22:41;;;;;;;5.53;5.03;;;;;;;-144.47;100.00;61586.06;6123472;23;20475;-76
2022/04/23 02:25:08;;;;;;;6.20;4.90;;;;;;;-144.47;100.00;61586.06;6123843;23;20012;-75
2022/04/23 02:27:58;;;;;;;6.95;4.85;;;;;;;-144.47;100.00;61586.06;6123927;23;20020;-75
2022/04/23 02:30:24;;;;;;;9.27;5.03;;;;;;;-144.47;100.00;61586.06;6123386;23;20482;-76
2022/04/23 02:32:49;;;;;;;5.55;5.00;;;;;;;-144.47;100.00;61586.06;6123460;23;20364;-76
2022/04/23 02:35:16;;;;;;;6.45;4.93;;;;;;;-144.47;100.00;61586.06;6125065;23;20044;-76
2022/04/23 02:38:09;;;;;;;5.22;4.35;;;;;;;-144.47;100.00;61586.06;6123686;23;20033;-76
2022/04/23 02:40:35;;;;;;;11.20;5.20;;;;;;;-144.47;100.00;61586.06;6123324;23;20462;-76
2022/04/23 02:43:03;;;;;;;5.45;4.32;;;;;;;-144.47;100.00;61586.06;6123664;23;20002;-76
2022/04/23 02:45:28;;;;;;;5.35;4.85;;;;;;;-144.47;100.00;61586.06;6122872;23;20013;-76
2022/04/23 02:48:19;;;;;;;8.23;5.00;;;;;;;-144.47;100.00;61586.06;6123296;23;20197;-76
2022/04/23 02:50:45;;;;;;;8.25;5.28;;;;;;;-144.47;100.00;61586.06;6123299;23;20006;-76
2022/04/23 02:53:10;;;;;;;5.47;4.95;;;;;;;-144.47;100.00;61586.06;6123639;23;20017;-76
2022/04/23 02:55:37;;;;;;;4.75;4.35;;;;;;;-144.47;100.00;61586.06;6123068;23;20066;-75
2022/04/23 02:58:05;;;;;;;4.55;4.15;;;;;;;-144.47;100.00;61586.06;6123436;23;20010;-76
2022/04/23 03:00:30;;;;;;;7.75;4.75;;;;;;;-144.47;100.00;61586.06;6122939;23;20187;-75
2022/04/23 03:02:56;;;;;;;4.80;4.40;;;;;;;-144.47;100.00;61586.06;6122850;23;20130;-75
2022/04/23 03:05:22;;;;;;;5.03;4.53;;;;;;;-144.47;100.00;61586.06;6123064;23;20339;-76
2022/04/23 03:07:48;;;;;;;6.88;4.38;;;;;;;-144.47;100.00;61586.06;6122535;23;20006;-74
2022/04/23 03:10:16;;;;;;;6.97;4.50;;;;;;;-144.47;100.00;61586.06;6146499;23;20014;-74
2022/04/23 03:13:08;;;;;;;5.57;4.50;;;;;;;-144.47;100.00;61586.06;6123593;23;20021;-74
2022/04/23 03:15:34;;;;;;;5.03;4.03;;;;;;;-144.47;100.00;61586.06;6123120;23;20045;-78
2022/04/23 03:18:26;;;;;;;7.25;4.40;;;;;;;-144.47;100.00;61586.06;6122699;23;20363;-76
2022/04/23 03:20:52;;;;;;;5.88;4.63;;;;;;;-144.47;100.00;61586.06;6123057;23;20069;-76
2022/04/23 03:23:43;;;;;;;4.93;4.43;;;;;;;-144.47;100.00;61586.06;6122880;23;20705;-76
2022/04/23 03:26:09;;;;;;;4.47;3.95;;;;;;;-144.47;100.00;61586.06;6123306;23;20017;-75
2022/04/23 03:28:35;;;;;;;5.40;4.50;;;;;;;-144.47;100.00;61586.06;6121299;23;20048;-76
2022/04/23 03:31:02;;;;;;;5.13;4.38;;;;;;;-144.47;100.00;61586.06;6123020;23;20014;-76
2022/04/23 03:33:29;;;;;;;5.68;4.57;;;;;;;-144.47;100.00;61586.06;6122165;23;20010;-77
2022/04/23 03:35:54;;;;;;;4.95;4.45;;;;;;;-144.47;100.00;61586.06;6121709;23;20343;-76
2022/04/23 03:38:20;;;;;;;4.95;4.13;;;;;;;-144.47;100.00;61586.06;6122183;23;20018;-76
2022/04/23 03:40:48;;;;;;;5.85;4.22;;;;;;;-144.47;100.00;61586.06;6122474;23;20025;-76
2022/04/23 03:43:15;;;;;;;6.95;6.18;;;;;;;-144.47;100.00;61586.06;6122457;23;20450;-76
2022/04/23 03:45:40;;;;;;;4.75;4.30;;;;;;;-144.47;100.00;61586.06;6122337;23;20010;-76
2022/04/23 03:48:06;;;;;;;4.88;4.35;;;;;;;-144.47;100.00;61586.06;6122581;23;20006;-76
2022/04/23 03:50:32;;;;;;;4.90;4.50;;;;;;;-144.47;100.00;61586.06;6121517;23;20010;-76
2022/04/23 03:52:58;;;;;;;5.13;4.63;;;;;;;-144.47;100.00;61586.06;6122647;23;20021;-76
2022/04/23 03:55:25;;;;;;;4.90;4.05;;;;;;;-144.47;100.00;61586.06;6122551;23;20018;-76
2022/04/23 03:57:52;;;;;;;6.05;5.10;;;;;;;-144.47;100.00;61586.06;6121215;23;20493;-76
2022/04/23 04:00:22;;;;;;;5.18;4.68;;;;;;;-144.47;100.00;61586.06;6122822;23;20009;-76
2022/04/23 04:02:50;;;;;;;6.32;5.00;;;;;;;-144.47;100.00;61586.06;6121204;23;20343;-76
2022/04/23 04:05:17;;;;;;;6.75;4.60;;;;;;;-144.47;100.00;61586.06;6122612;23;20010;-76
2022/04/23 04:07:45;;;;;;;5.57;4.35;;;;;;;-144.47;100.00;61586.06;6120677;23;20005;-77
2022/04/23 04:10:13;;;;;;;6.80;4.63;;;;;;;-144.47;100.00;61586.06;6124327;23;20010;-76
2022/04/23 04:13:03;;;;;;;6.35;4.80;;;;;;;-144.47;100.00;61586.06;6130306;23;20024;-76
2022/04/23 04:15:55;;;;;;;4.95;4.32;;;;;;;-144.47;100.00;61586.06;6123438;23;20048;-76
2022/04/23 04:18:23;;;;;;;4.95;4.55;;;;;;;-144.47;100.00;61586.06;6122197;23;20010;-76
2022/04/23 04:20:53;;;;;;;7.32;5.00;;;;;;;-144.47;100.00;61586.06;6122106;23;20010;-76
2022/04/23 04:23:20;;;;;;;5.82;4.95;;;;;;;-144.47;100.00;61586.06;6122465;23;20002;-75
2022/04/23 04:25:46;;;;;;;6.03;5.45;;;;;;;-144.47;100.00;61586.06;6122197;23;20438;-76
2022/04/23 04:28:12;;;;;;;5.40;4.90;;;;;;;-144.47;100.00;61586.06;6122760;23;20014;-76
2022/04/23 04:33:22;;;;;;;5.47;4.95;;;;;;;-144.47;100.00;61586.06;6122699;23;20065;-75
2022/04/23 04:35:47;;;;;;;5.95;5.10;;;;;;;-144.47;100.00;61586.06;6125237;23;20022;-75
2022/04/23 04:38:37;;;;;;;5.88;5.10;;;;;;;-144.47;100.00;61586.06;6151113;23;20076;-76
2022/04/23 04:41:04;;;;;;;5.68;5.18;;;;;;;-144.47;100.00;61586.06;6151961;23;20014;-75
2022/04/23 04:43:29;;;;;;;5.45;4.95;;;;;;;-144.47;100.00;61586.06;6151609;23;20092;-74
2022/04/23 04:45:55;;;;;;;5.00;4.60;;;;;;;-144.47;100.00;61586.06;6152002;23;20060;-76
2022/04/23 04:48:20;;;;;;;6.10;5.65;;;;;;;-144.47;100.00;61586.06;6152309;23;20454;-74
2022/04/23 04:50:46;;;;;;;6.88;5.45;;;;;;;-144.47;100.00;61586.06;6151293;23;20013;-74
2022/04/23 04:53:11;;;;;;;6.82;5.40;;;;;;;-144.47;100.00;61586.06;6151324;23;20036;-75
2022/04/23 04:55:37;;;;;;;7.28;5.47;;;;;;;-144.47;100.00;61586.06;6151433;23;20017;-76
2022/04/23 04:58:03;;;;;;;7.82;5.47;;;;;;;-144.47;100.00;61586.06;6151791;23;20083;-75
2022/04/23 05:00:30;;;;;;;6.15;5.15;;;;;;;-144.47;100.00;61586.06;6151405;23;20072;-76
2022/04/23 05:02:56;;;;;;;5.90;5.15;;;;;;;-144.47;100.00;61586.06;6151940;23;20013;-76
2022/04/23 05:05:21;;;;;;;7.28;5.13;;;;;;;-144.47;100.00;61586.06;6151530;23;20005;-75
2022/04/23 05:07:49;;;;;;;8.68;5.10;;;;;;;-144.47;100.00;61586.06;6151455;23;20014;-75
2022/04/23 05:10:14;;;;;;;6.25;5.20;;;;;;;-144.47;100.00;61586.06;6151381;23;20017;-75
2022/04/23 05:12:39;;;;;;;5.55;5.00;;;;;;;-144.47;100.00;61586.06;6151442;23;20024;-76
2022/04/23 05:15:06;;;;;;;6.35;4.80;;;;;;;-144.47;100.00;61586.06;6151753;23;20442;-77
2022/04/23 05:17:31;;;;;;;7.43;5.00;;;;;;;-144.47;100.00;61586.06;6151237;23;20005;-75
2022/04/23 05:19:57;;;;;;;5.25;4.80;;;;;;;-144.47;100.00;61586.06;6151974;23;20010;-75
2022/04/23 05:22:25;;;;;;;4.97;4.47;;;;;;;-144.47;100.00;61586.06;6151144;23;20021;-76
2022/04/23 05:24:50;;;;;;;10.20;5.30;;;;;;;-144.47;100.00;61586.06;6149615;23;20006;-76
2022/04/23 05:27:40;;;;;;;5.63;4.75;;;;;;;-144.47;100.00;61586.06;6151388;23;20025;-76
2022/04/23 05:30:07;;;;;;;9.35;4.43;;;;;;;-144.47;100.00;61586.06;6151889;23;20287;-75
2022/04/23 05:32:32;;;;;;;7.80;4.93;;;;;;;-144.47;100.00;61586.06;6152645;23;20056;-76
2022/04/23 05:34:58;;;;;;;7.90;4.68;;;;;;;-144.47;100.00;61586.06;6150746;23;20001;-76
2022/04/23 05:37:25;;;;;;;6.53;4.80;;;;;;;-144.47;100.00;61586.06;6123890;23;20022;-76
2022/04/23 05:39:50;;;;;;;4.75;4.30;;;;;;;-144.47;100.00;61586.06;6123237;23;20029;-76
2022/04/23 05:42:16;;;;;;;7.00;4.88;;;;;;;-144.47;100.00;61586.06;6124280;23;20021;-76
2022/04/23 05:44:43;;;;;;;6.70;5.38;;;;;;;-144.47;100.00;61586.06;6124064;23;20400;-76
2022/04/23 05:47:08;;;;;;;6.75;5.07;;;;;;;-144.47;100.00;61586.06;6124305;23;20033;-75
2022/04/23 05:49:37;;;;;;;6.13;4.70;;;;;;;-144.47;100.00;61586.06;6123793;23;20470;-76
2022/04/23 05:52:05;;;;;;;5.82;4.90;;;;;;;-144.47;100.00;61586.06;6123853;23;20017;-75
2022/04/23 05:54:32;;;;;;;5.65;4.68;;;;;;;-144.47;100.00;61586.06;6121163;23;20010;-76
2022/04/23 05:56:57;;;;;;;7.72;5.50;;;;;;;-144.47;100.00;61586.06;6122062;23;20018;-76
2022/04/23 05:59:26;;;;;;;7.57;4.82;;;;;;;-144.47;100.00;61586.06;6145894;23;20053;-76
2022/04/23 06:01:51;;;;;;;6.20;4.68;;;;;;;-144.47;100.00;61586.06;6121617;23;20092;-77
2022/04/23 06:04:16;;;;;;;6.40;4.28;;;;;;;-144.47;100.00;61586.06;6123700;23;20041;-75
2022/04/23 06:06:42;;;;;;;5.57;4.35;;;;;;;-144.47;100.00;61586.06;6122598;23;20053;-78
2022/04/23 06:09:07;;;;;;;5.75;4.18;;;;;;;-144.47;100.00;61586.06;6123269;23;20057;-75
2022/04/23 06:11:33;;;;;;;7.13;4.28;;;;;;;-144.47;100.00;61586.06;6122523;23;20017;-75
2022/04/23 06:13:58;;;;;;;5.03;4.03;;;;;;;-144.47;100.00;61586.06;6123256;23;20078;-76
2022/04/23 06:16:24;;;;;;;6.75;4.18;;;;;;;-144.47;100.00;61586.06;6123394;23;20032;-77
2022/04/23 06:18:49;;;;;;;6.93;3.60;;;;;;;-144.47;100.00;61586.06;6123800;23;20650;-76
2022/04/23 06:21:14;;;;;;;6.65;3.90;;;;;;;-144.47;100.00;61586.06;6123967;23;20526;-75
2022/04/23 06:23:40;;;;;;;5.68;4.07;;;;;;;-144.47;100.00;61586.06;6123414;23;20021;-75
2022/04/23 06:26:06;;;;;;;5.30;3.72;;;;;;;-144.47;100.00;61586.06;6123180;23;20010;-74
2022/04/23 06:28:32;;;;;;;6.88;3.63;;;;;;;-144.47;100.00;61586.06;6122903;23;20002;-75
2022/04/23 06:30:57;;;;;;;4.20;2.75;;;;;;;-144.47;100.00;61586.06;6123496;23;20077;-76
2022/04/23 06:33:22;;;;;;;4.00;2.88;;;;;;;-144.47;100.00;61586.06;6123545;23;20006;-75
2022/04/23 06:35:48;;;;;;;7.90;3.55;;;;;;;-144.47;100.00;61586.06;6123592;23;20021;-76
2022/04/23 06:38:13;;;;;;;7.03;3.47;;;;;;;-144.47;100.00;61586.06;6123993;23;20431;-77
2022/04/23 06:40:41;;;;;;;5.95;2.70;;;;;;;-144.47;100.00;61586.06;6123212;23;20037;-75
2022/04/23 06:43:08;;;;;;;4.50;2.80;;;;;;;-144.47;100.00;61586.06;6122649;23;20096;-77
2022/04/23 06:45:33;;;;;;;4.18;2.95;;;;;;;-144.47;100.00;61586.06;6121505;23;20225;-76
2022/04/23 06:48:03;;;;;;;7.10;2.85;;;;;;;-144.47;100.00;61586.06;6123467;23;20347;-76
2022/04/23 06:50:31;;;;;;;5.97;2.55;;;;;;;-144.47;100.00;61586.06;6122965;23;20014;-76
2022/04/23 06:52:59;;;;;;;4.80;2.95;;;;;;;-144.47;100.00;61586.06;6123620;23;20057;-75
2022/04/23 06:55:49;;;;;;;5.78;2.47;;;;;;;-144.47;100.00;61586.06;6123825;23;20116;-74
2022/04/23 06:58:16;;;;;;;5.50;2.38;;;;;;;-144.47;100.00;61586.06;6122772;23;20417;-77
2022/04/23 07:00:41;;;;;;;3.63;2.40;;;;;;;-144.47;100.00;61586.06;6122800;23;20482;-75
2022/04/23 07:03:33;;;;;;;4.63;2.15;;;;;;;-144.47;100.00;61586.06;6122925;23;20084;-77
2022/04/23 07:06:00;;;;;;;7.20;2.65;;;;;;;-144.47;100.00;61586.06;6123853;23;20097;-80
2022/04/23 07:08:25;;;;;;;3.22;2.00;;;;;;;-144.47;100.00;61586.06;6124271;23;20387;-77
2022/04/23 07:10:53;;;;;;;5.18;2.08;;;;;;;-144.47;100.00;61586.06;6123856;23;20017;-77
2022/04/23 07:13:18;;;;;;;3.08;1.92;;;;;;;-144.47;100.00;61586.06;6144804;23;20014;-78
2022/04/23 07:15:45;;;;;;;4.97;2.25;;;;;;;-144.47;100.00;61586.06;6121965;23;20010;-78
2022/04/23 07:18:10;;;;;;;2.80;1.80;;;;;;;-144.47;100.00;61586.06;6123009;23;20029;-79
2022/04/23 07:20:39;;;;;;;3.22;1.70;;;;;;;-144.47;100.00;61586.06;6123420;23;20010;-80
2022/04/23 07:25:50;;;;;;;4.10;1.55;;;;;;;-144.47;100.00;61586.06;6123973;23;20014;-79
2022/04/23 07:28:16;;;;;;;3.20;1.20;;;;;;;-144.47;100.00;61586.06;6122143;23;20017;-76
2022/04/23 07:30:42;;;;;;;4.13;1.45;;;;;;;-144.47;100.00;61586.06;6125122;23;20294;-82
2022/04/23 07:33:08;;;;;;;2.30;1.00;;;;;;;-144.47;100.00;61586.06;6128111;23;20014;-82
2022/04/23 07:38:21;;;;;;;4.95;1.15;;;;;;;-144.47;100.00;61586.06;6129959;23;20014;-84
2022/04/23 07:40:48;;;;;;;3.20;1.27;;;;;;;-144.47;100.00;61586.06;6138654;23;20029;-83
2022/04/23 07:43:15;;;;;;;2.50;1.25;;;;;;;-144.47;100.00;61586.06;6145211;23;20000;-86
2022/04/23 07:45:42;;;;;;;4.57;1.63;;;;;;;-144.47;100.00;61586.06;6141888;23;20014;-83
2022/04/23 07:48:09;;;;;;;2.60;1.30;;;;;;;-144.47;100.00;61586.06;6141115;23;20072;-88
2022/04/23 07:50:37;;;;;;;6.00;2.15;;;;;;;-144.47;100.00;61586.06;6142827;23;20046;-84
2022/04/23 07:53:04;;;;;;;3.97;1.30;;;;;;;-144.47;100.00;61586.06;6137427;23;20073;-84
2022/04/23 07:55:32;;;;;;;4.72;2.17;;;;;;;-144.47;100.00;61586.06;6123493;23;20102;-87
2022/04/23 07:57:59;;;;;;;6.85;1.95;;;;;;;-144.47;100.00;61586.06;6125672;23;20446;-85
2022/04/23 08:00:25;;;;;;;6.03;1.60;;;;;;;-144.47;100.00;61586.06;6133939;23;20017;-88
2022/04/23 08:02:52;;;;;;;5.20;2.03;;;;;;;-144.47;100.00;61586.06;6137717;23;20020;-83
2022/04/23 08:05:17;;;;;;;5.38;2.30;;;;;;;-144.47;100.00;61586.06;6133625;23;20016;-86
2022/04/23 08:07:44;;;;;;;8.68;2.15;;;;;;;-144.47;100.00;61586.06;6129167;23;20080;-86
2022/04/23 08:10:10;;;;;;;9.05;2.88;;;;;;;-144.47;100.00;61586.06;6137708;23;20014;-87
2022/04/23 08:12:36;;;;;;;7.00;2.53;;;;;;;-144.47;100.00;61586.06;6126839;23;20013;-86
2022/04/23 08:15:04;;;;;;;8.13;2.20;;;;;;;-144.47;100.00;61586.06;6125215;23;20331;-87
2022/04/23 08:17:30;;;;;;;5.72;2.70;;;;;;;-144.47;100.00;61586.06;6125812;23;20028;-85
2022/04/23 08:19:56;;;;;;;10.30;2.42;;;;;;;-144.47;100.00;61586.06;6127459;23;20010;-86
2022/04/23 08:22:22;;;;;;;6.55;2.30;;;;;;;-144.47;100.00;61586.06;6125701;23;20010;-85
2022/04/23 08:24:47;;;;;;;5.80;2.40;;;;;;;-144.47;100.00;61586.06;6124448;23;20064;-84
2022/04/23 08:27:13;;;;;;;7.97;2.20;;;;;;;-144.47;100.00;61586.06;6125271;23;20037;-84
2022/04/23 08:32:23;;;;;;;2.67;1.70;;;;;;;-144.47;100.00;61586.06;6124951;23;20009;-87
2022/04/23 08:34:48;;;;;;;4.13;1.50;;;;;;;-144.47;100.00;61586.06;6123115;23;20006;-83
2022/04/23 08:37:14;;;;;;;3.70;1.75;;;;;;;-144.47;100.00;61586.06;6125825;23;20022;-84
2022/04/23 08:39:39;;;;;;;2.10;0.93;;;;;;;-144.47;100.00;61586.06;6124203;23;20013;-83
2022/04/23 08:42:06;;;;;;;2.53;0.80;;;;;;;-144.47;100.00;61586.06;6124515;23;20435;-83
2022/04/23 08:44:32;;;;;;;3.63;0.90;;;;;;;-144.47;100.00;61586.06;6126745;23;20419;-82
2022/04/23 08:46:57;;;;;;;1.73;0.90;;;;;;;-144.47;100.00;61586.06;6126036;23;20010;-82
2022/04/23 08:49:29;;;;;;;3.50;1.27;;;;;;;-144.47;100.00;61586.06;6126090;23;20021;-85
2022/04/23 08:52:08;;;;;;;3.50;1.23;;;;;;;-144.47;100.00;61586.06;6134551;23;20014;-83
2022/04/23 08:54:34;;;;;;;1.90;0.98;;;;;;;-144.47;100.00;61586.06;6144450;23;20010;-85
2022/04/23 08:56:59;;;;;;;0.80;0.80;;;;;;;-144.47;100.00;61586.06;6146906;23;20009;-85
2022/04/23 08:59:26;;;;;;;1.75;1.45;;;;;;;-144.47;100.00;61586.06;6142323;23;20014;-84
2022/04/23 09:01:52;;;;;;;1.40;1.00;;;;;;;-144.47;100.00;61586.06;6141302;23;20001;-85
2022/04/23 09:04:17;;;;;;;1.00;0.90;;;;;;;-144.47;100.00;61586.06;6125383;23;20010;-82
2022/04/23 09:06:45;;;;;;;3.40;1.15;;;;;;;-144.47;100.00;61586.06;6140110;23;20021;-86
2022/04/23 09:09:17;;;;;;;1.73;1.10;;;;;;;-144.47;100.00;61586.06;6142742;23;20065;-85
2022/04/23 09:11:51;;;;;;;3.58;1.25;;;;;;;-144.47;100.00;61586.06;6136805;23;20049;-85
2022/04/23 09:14:31;;;;;;;1.63;1.15;;;;;;;-144.47;100.00;61586.06;6121564;23;20010;-83
2022/04/23 09:25:30;;;;;;;1.80;1.00;;;;;;;-144.47;100.00;61586.06;6122248;23;20418;-85
2022/04/23 09:27:56;;;;;;;1.85;0.82;;;;;;;-144.47;100.00;61586.06;6146015;23;20022;-84
2022/04/23 09:30:23;;;;;;;1.42;0.68;;;;;;;-144.47;100.00;61586.06;6122456;23;20100;-86
2022/04/23 09:32:57;;;;;;;1.38;0.73;;;;;;;-144.47;100.00;61586.06;6121352;23;20006;-84
2022/04/23 09:35:23;;;;;;;1.90;1.17;;;;;;;-144.47;100.00;61586.06;6119334;23;20350;-83
2022/04/23 09:40:32;;;;;;;1.40;1.00;;;;;;;-144.47;100.00;61586.06;6118912;23;20010;-81
2022/04/23 09:43:01;;;;;;;1.90;1.50;;;;;;;-144.47;100.00;61586.06;6121147;23;20077;-81
2022/04/23 09:45:31;;;;;;;7.37;1.30;;;;;;;-144.47;100.00;61586.06;6122701;23;20344;-82
2022/04/23 09:48:17;;;;;;;2.55;1.25;;;;;;;-144.47;100.00;61586.06;6122369;23;20014;-82
2022/04/23 09:50:45;;;;;;;9.65;1.60;;;;;;;-144.47;100.00;61586.06;6121796;23;20017;-80
2022/04/23 09:53:13;;;;;;;2.45;0.77;;;;;;;-144.47;100.00;61586.06;6122036;23;20009;-83
2022/04/23 09:55:39;;;;;;;4.40;1.50;;;;;;;-144.47;100.00;61586.06;6121640;23;20072;-83
2022/04/23 09:58:08;;;;;;;2.85;1.55;;;;;;;-144.47;100.00;61586.06;6120063;23;20088;-80
2022/04/23 10:00:39;;;;;;;4.40;1.30;;;;;;;-144.47;100.00;61586.06;6121942;23;20013;-85
2022/04/23 10:03:08;;;;;;;4.57;1.27;;;;;;;-144.47;100.00;61586.06;6123534;23;20014;-83
2022/04/23 10:05:40;;;;;;;2.70;1.02;;;;;;;-144.47;100.00;61586.06;6134033;23;20045;-81
2022/04/23 10:08:13;;;;;;;3.40;1.20;;;;;;;-144.47;100.00;61586.06;6136513;23;20438;-82
2022/04/23 10:10:53;;;;;;;4.95;1.40;;;;;;;-144.47;100.00;61586.06;6122195;23;20033;-81
2022/04/23 10:13:21;;;;;;;5.28;1.42;;;;;;;-144.47;100.00;61586.06;6121535;23;20014;-84
2022/04/23 10:15:48;;;;;;;9.02;1.75;;;;;;;-144.47;100.00;61586.06;6121878;23;20014;-82
2022/04/23 10:18:15;;;;;;;3.05;1.20;;;;;;;-144.47;100.00;61586.06;6122748;23;20022;-82
2022/04/23 10:20:52;;;;;;;2.53;1.55;;;;;;;-144.47;100.00;61586.06;6122250;23;20021;-80
2022/04/23 10:23:30;;;;;;;4.28;1.40;;;;;;;-144.47;100.00;61586.06;6145879;23;20343;-78
2022/04/23 10:26:26;;;;;;;2.05;1.73;;;;;;;-144.47;100.00;61586.06;6123073;23;20328;-77
2022/04/23 10:28:52;;;;;;;4.88;1.45;;;;;;;-144.47;100.00;61586.06;6122770;23;20014;-79
2022/04/23 10:31:17;;;;;;;2.10;1.02;;;;;;;-144.47;100.00;61586.06;6122546;23;20446;-80
2022/04/23 10:33:47;;;;;;;3.20;1.50;;;;;;;-144.47;100.00;61586.06;6122022;23;20372;-77
2022/04/23 10:36:13;;;;;;;2.35;1.73;;;;;;;-144.47;100.00;61586.06;6122546;23;20050;-80
2022/04/23 10:38:42;;;;;;;10.07;2.05;;;;;;;-144.47;100.00;61586.06;6121369;23;20010;-81
2022/04/23 10:41:11;;;;;;;3.30;1.30;;;;;;;-144.47;100.00;61586.06;6123269;23;20069;-83
2022/04/23 10:43:52;;;;;;;4.43;1.42;;;;;;;-144.47;100.00;61586.06;6122838;23;20060;-82
2022/04/23 10:46:36;;;;;;;3.47;1.75;;;;;;;-144.47;100.00;61586.06;6126415;23;20180;-84
2022/04/23 10:49:22;;;;;;;4.90;1.60;;;;;;;-144.47;100.00;61586.06;6098665;23;20407;-82
2022/04/23 10:51:55;;;;;;;4.25;1.58;;;;;;;-144.47;100.00;61586.06;6123721;23;20125;-82
2022/04/23 10:54:41;;;;;;;5.50;1.60;;;;;;;-144.47;100.00;61586.06;6119867;23;20431;-80
2022/04/23 10:57:07;;;;;;;6.60;1.40;;;;;;;-144.47;100.00;61586.06;6121653;23;20053;-77
2022/04/23 10:59:49;;;;;;;3.08;1.10;;;;;;;-144.47;100.00;61586.06;6121007;23;20331;-77
2022/04/23 11:02:20;;;;;;;3.50;1.38;;;;;;;-144.47;100.00;61586.06;6124793;23;20018;-83
2022/04/23 11:13:30;;;;;;;5.97;1.73;;;;;;;-144.47;100.00;61586.06;6123508;23;20044;-82
2022/04/23 11:16:05;;;;;;;6.07;1.73;;;;;;;-144.47;100.00;61586.06;6128177;23;20061;-81
2022/04/23 11:18:32;;;;;;;3.63;1.38;;;;;;;-144.47;100.00;61586.06;6119694;23;20033;-82
2022/04/23 11:21:04;;;;;;;5.07;1.10;;;;;;;-144.47;100.00;61586.06;6121174;23;20014;-82
2022/04/23 11:23:32;;;;;;;3.15;1.30;;;;;;;-144.47;100.00;61586.06;6120761;23;20018;-80
2022/04/23 11:25:57;;;;;;;4.95;1.02;;;;;;;-144.47;100.00;61586.06;6121265;23;20017;-81
2022/04/23 11:28:23;;;;;;;6.85;1.50;;;;;;;-144.47;100.00;61586.06;6120431;23;20351;-82
2022/04/23 11:30:51;;;;;;;4.82;1.40;;;;;;;-144.47;100.00;61586.06;6120491;23;20046;-83
2022/04/23 11:33:17;;;;;;;3.13;1.25;;;;;;;-144.47;100.00;61586.06;6145029;23;20387;-82
2022/04/23 11:35:42;;;;;;;2.90;1.20;;;;;;;-144.47;100.00;61586.06;6121401;23;20133;-83
2022/04/23 11:38:19;;;;;;;3.65;1.10;;;;;;;-144.47;100.00;61586.06;6120411;23;20018;-77
2022/04/23 11:40:45;;;;;;;2.42;1.08;;;;;;;-144.47;100.00;61586.06;6116517;23;20061;-78
2022/04/23 11:43:12;;;;;;;5.45;1.83;;;;;;;-144.47;100.00;61586.06;6117421;23;20467;-84
2022/04/23 11:45:47;;;;;;;4.07;1.42;;;;;;;-144.47;100.00;61586.06;6119550;23;20402;-81
2022/04/23 11:48:13;;;;;;;3.17;1.95;;;;;;;-144.47;100.00;61586.06;6120154;23;20098;-80